Time;durP1;ratioP1;P1;durP2;ratioP2;P2;SDS_P1;SDS_P2;PMS_P1;PMS_P2;Temp;Humidity;BMP_temperature;BMP_pressure;BME280_temperature;BME280_humidity;BME280_pressure;Samples;Min_cycle;Max_cycle;Signal;HPM_P1;HPM_P2
2023/04/08 00:01:52;;;;;;;14.75;6.43;;;5.00;99.90;;;;;;5046141;28;20448;-77
2023/04/08 00:04:18;;;;;;;11.20;6.38;;;5.80;99.90;;;;;;5045118;28;20339;-77
2023/04/08 00:06:44;;;;;;;10.20;6.75;;;4.50;99.90;;;;;;5046817;28;20090;-77
2023/04/08 00:09:10;;;;;;;9.43;6.28;;;4.50;99.90;;;;;;5046704;28;20041;-77
2023/04/08 00:11:36;;;;;;;12.23;6.80;;;4.50;99.90;;;;;;5046826;28;20063;-77
2023/04/08 00:14:03;;;;;;;9.50;6.55;;;4.40;99.90;;;;;;5044457;28;20080;-77
2023/04/08 00:16:29;;;;;;;9.13;6.30;;;5.30;99.90;;;;;;5028558;28;20048;-77
2023/04/08 00:18:55;;;;;;;9.73;6.63;;;4.40;99.90;;;;;;5044573;28;20029;-77
2023/04/08 00:21:22;;;;;;;13.60;7.75;;;5.30;99.90;;;;;;5044889;28;20479;-77
2023/04/08 00:23:48;;;;;;;9.27;6.72;;;4.70;99.90;;;;;;5044732;28;20488;-77
2023/04/08 00:26:14;;;;;;;12.82;7.68;;;4.40;99.90;;;;;;5027934;28;20040;-77
2023/04/08 00:28:41;;;;;;;14.43;7.63;;;4.30;99.90;;;;;;5044941;28;20137;-76
2023/04/08 00:31:07;;;;;;;14.27;7.65;;;4.80;99.90;;;;;;5043936;28;20049;-77
2023/04/08 00:33:33;;;;;;;11.73;7.97;;;4.30;99.90;;;;;;5046231;28;20044;-77
2023/04/08 00:35:59;;;;;;;13.05;7.88;;;4.30;99.90;;;;;;5043507;28;20496;-77
2023/04/08 00:38:25;;;;;;;11.07;7.97;;;5.00;99.90;;;;;;5011448;28;20528;-77
2023/04/08 00:40:50;;;;;;;14.00;8.45;;;4.40;99.90;;;;;;5044200;28;20127;-77
2023/04/08 00:43:19;;;;;;;12.05;7.53;;;4.30;99.90;;;;;;5028012;28;20049;-77
2023/04/08 00:45:45;;;;;;;15.38;8.05;;;4.20;99.90;;;;;;5044424;28;20048;-77
2023/04/08 00:48:11;;;;;;;12.95;7.78;;;4.20;99.90;;;;;;5045517;28;20530;-77
2023/04/08 00:50:37;;;;;;;10.43;7.68;;;4.20;99.90;;;;;;5044879;28;20077;-77
2023/04/08 00:53:02;;;;;;;12.35;8.48;;;4.10;99.90;;;;;;5043668;28;20053;-77
2023/04/08 00:55:28;;;;;;;12.63;8.18;;;5.30;99.90;;;;;;5011357;28;20044;-77
2023/04/08 00:57:55;;;;;;;11.38;7.60;;;4.10;99.90;;;;;;5027253;28;20407;-76
2023/04/08 01:00:20;;;;;;;12.05;7.95;;;4.90;99.90;;;;;;5043573;28;20053;-77
2023/04/08 01:03:08;;;;;;;14.05;7.68;;;4.00;99.90;;;;;;5044609;28;20135;-77
2023/04/08 01:05:38;;;;;;;13.60;8.82;;;4.00;99.90;;;;;;5044540;28;20045;-77
2023/04/08 01:08:07;;;;;;;11.88;8.35;;;4.00;99.90;;;;;;5045105;28;20037;-77
2023/04/08 01:10:36;;;;;;;18.20;8.90;;;3.90;99.90;;;;;;5027115;28;20108;-77
2023/04/08 01:13:09;;;;;;;10.73;8.25;;;3.90;99.90;;;;;;5027967;28;20399;-77
2023/04/08 01:15:38;;;;;;;12.38;8.63;;;5.10;99.90;;;;;;5044131;28;20049;-77
2023/04/08 01:18:11;;;;;;;10.82;7.70;;;3.80;99.90;;;;;;5043052;28;20128;-77
2023/04/08 01:20:39;;;;;;;13.82;7.75;;;3.80;99.90;;;;;;5045521;28;20124;-77
2023/04/08 01:23:11;;;;;;;14.23;8.88;;;3.70;99.90;;;;;;5044334;28;20044;-77
2023/04/08 01:25:38;;;;;;;28.95;9.70;;;3.70;99.90;;;;;;5045272;28;20044;-77
2023/04/08 01:28:10;;;;;;;19.23;8.63;;;3.70;99.90;;;;;;5043525;28;20049;-76
2023/04/08 01:30:39;;;;;;;13.47;8.50;;;3.60;99.90;;;;;;5043675;28;20103;-76
2023/04/08 01:33:05;;;;;;;15.80;9.60;;;3.60;99.90;;;;;;5044127;28;20052;-77
2023/04/08 01:35:31;;;;;;;12.13;7.68;;;3.60;99.90;;;;;;5010310;28;20048;-76
2023/04/08 01:37:59;;;;;;;12.82;8.43;;;3.50;99.90;;;;;;5044970;28;20041;-76
2023/04/08 01:40:25;;;;;;;14.32;9.18;;;3.50;99.90;;;;;;5026398;28;20071;-77
2023/04/08 01:42:54;;;;;;;11.45;8.27;;;4.40;99.90;;;;;;5043197;28;20041;-76
2023/04/08 01:45:21;;;;;;;12.45;9.50;;;3.40;99.90;;;;;;5044566;28;20128;-76
2023/04/08 01:47:48;;;;;;;12.48;7.88;;;3.30;99.90;;;;;;5043100;28;20041;-77
2023/04/08 01:50:15;;;;;;;12.80;9.25;;;3.30;99.90;;;;;;5045222;28;20044;-76
2023/04/08 01:52:44;;;;;;;15.98;9.48;;;3.30;99.90;;;;;;5042490;28;20049;-77
2023/04/08 01:55:10;;;;;;;13.43;9.18;;;4.00;99.90;;;;;;5043374;28;20519;-75
2023/04/08 01:57:38;;;;;;;14.55;9.25;;;4.00;99.90;;;;;;5042587;28;20488;-76
2023/04/08 02:00:11;;;;;;;14.75;9.30;;;4.30;99.90;;;;;;5042791;28;20569;-77
2023/04/08 02:02:38;;;;;;;15.77;9.38;;;3.20;99.90;;;;;;5043449;28;20155;-77
2023/04/08 02:05:04;;;;;;;14.30;8.68;;;3.20;99.90;;;;;;5044109;28;20041;-77
2023/04/08 02:07:30;;;;;;;12.23;8.65;;;3.10;99.90;;;;;;5043380;28;20140;-77
2023/04/08 02:09:56;;;;;;;16.73;9.25;;;3.10;99.90;;;;;;5025401;28;20470;-77
2023/04/08 02:12:22;;;;;;;12.40;9.27;;;3.00;99.90;;;;;;5026122;28;20048;-78
2023/04/08 02:14:48;;;;;;;14.60;9.75;;;3.00;99.90;;;;;;5026167;28;20063;-77
2023/04/08 02:17:24;;;;;;;11.82;8.60;;;3.00;99.90;;;;;;5044157;28;20059;-77
2023/04/08 02:20:06;;;;;;;13.52;8.65;;;3.20;99.90;;;;;;5043327;28;20099;-77
2023/04/08 02:22:49;;;;;;;15.73;8.63;;;3.00;99.90;;;;;;5009087;28;20048;-77
2023/04/08 02:25:20;;;;;;;11.30;7.65;;;2.90;99.90;;;;;;5043052;28;20052;-77
2023/04/08 02:27:48;;;;;;;12.90;8.82;;;4.10;99.90;;;;;;5042608;28;20053;-77
2023/04/08 02:30:16;;;;;;;13.27;9.77;;;2.90;99.90;;;;;;5059465;28;20484;-77
2023/04/08 02:32:42;;;;;;;15.48;10.48;;;3.70;99.90;;;;;;5044194;28;20123;-77
2023/04/08 02:35:10;;;;;;;16.20;10.85;;;2.90;99.90;;;;;;5042063;28;20063;-77
2023/04/08 02:37:36;;;;;;;18.40;11.48;;;2.90;99.90;;;;;;5042409;28;20059;-77
2023/04/08 02:40:02;;;;;;;17.88;11.20;;;2.90;99.90;;;;;;5043429;28;20037;-77
2023/04/08 02:42:28;;;;;;;16.80;10.32;;;3.00;99.90;;;;;;5042455;28;20112;-77
2023/04/08 02:44:54;;;;;;;15.13;10.70;;;3.00;99.90;;;;;;5041927;28;20041;-77
2023/04/08 02:47:20;;;;;;;14.88;10.68;;;2.90;99.90;;;;;;5025652;28;20048;-77
2023/04/08 02:49:45;;;;;;;17.38;11.13;;;2.90;99.90;;;;;;5026457;28;20037;-77
2023/04/08 02:52:11;;;;;;;15.75;10.50;;;2.90;99.90;;;;;;5024970;28;20041;-77
2023/04/08 02:54:37;;;;;;;14.10;10.18;;;3.30;99.90;;;;;;5041897;28;20102;-77
2023/04/08 02:57:02;;;;;;;17.98;10.95;;;2.90;99.90;;;;;;5042031;28;20094;-77
2023/04/08 02:59:28;;;;;;;15.95;11.00;;;2.90;99.90;;;;;;5043344;28;20480;-77
2023/04/08 03:01:54;;;;;;;20.58;12.63;;;2.80;99.90;;;;;;5043104;28;20045;-77
2023/04/08 03:04:20;;;;;;;14.07;10.95;;;4.10;99.90;;;;;;5043578;28;20081;-76
2023/04/08 03:06:46;;;;;;;18.88;12.05;;;2.80;99.90;;;;;;5044141;28;20049;-77
2023/04/08 03:09:11;;;;;;;18.92;11.88;;;4.20;99.90;;;;;;5042844;28;20112;-76
2023/04/08 03:11:37;;;;;;;19.20;12.88;;;2.80;99.90;;;;;;5042708;28;20057;-77
2023/04/08 03:14:03;;;;;;;18.75;12.90;;;2.70;99.90;;;;;;5074713;28;20393;-77
2023/04/08 03:16:28;;;;;;;18.73;12.88;;;2.80;99.90;;;;;;5041918;28;20048;-77
2023/04/08 03:18:54;;;;;;;20.80;13.15;;;2.80;99.90;;;;;;5041610;28;20047;-77
2023/04/08 03:21:20;;;;;;;17.98;12.38;;;3.40;99.90;;;;;;5043615;28;20052;-77
2023/04/08 03:23:45;;;;;;;23.48;14.63;;;3.00;99.90;;;;;;5026298;28;20055;-77
2023/04/08 03:26:11;;;;;;;21.20;15.20;;;2.70;99.90;;;;;;5045540;28;20040;-75
2023/04/08 03:28:37;;;;;;;21.92;14.43;;;3.90;99.90;;;;;;5062877;28;20098;-76
2023/04/08 03:31:05;;;;;;;25.83;13.57;;;2.60;99.90;;;;;;5062559;28;20131;-76
2023/04/08 03:33:31;;;;;;;23.35;14.25;;;3.90;99.90;;;;;;5047661;28;20041;-76
2023/04/08 03:35:57;;;;;;;23.15;14.93;;;2.70;99.90;;;;;;5028368;28;20089;-77
2023/04/08 03:38:23;;;;;;;21.75;15.20;;;4.00;99.90;;;;;;5079055;28;20122;-76
2023/04/08 03:40:48;;;;;;;24.63;13.90;;;2.70;99.90;;;;;;5046286;28;20056;-76
2023/04/08 03:43:14;;;;;;;22.25;15.38;;;2.70;99.90;;;;;;5028612;28;20563;-76
2023/04/08 03:45:40;;;;;;;27.33;14.98;;;2.70;99.90;;;;;;5046008;28;20049;-76
2023/04/08 03:48:07;;;;;;;22.08;14.60;;;2.70;99.90;;;;;;5044773;28;20048;-76
2023/04/08 03:50:32;;;;;;;21.33;15.45;;;2.70;99.90;;;;;;5029117;28;20056;-76
2023/04/08 03:52:58;;;;;;;26.38;15.25;;;2.70;99.90;;;;;;5046322;28;20044;-76
2023/04/08 03:55:24;;;;;;;25.77;15.65;;;2.70;99.90;;;;;;5045588;28;20068;-76
2023/04/08 03:57:49;;;;;;;24.05;15.88;;;2.00;99.90;;;;;;5046939;28;20044;-75
2023/04/08 04:00:15;;;;;;;29.63;16.65;;;2.70;99.90;;;;;;5012066;28;20048;-76
2023/04/08 04:02:41;;;;;;;27.10;16.95;;;2.70;99.90;;;;;;5047098;28;20045;-76
2023/04/08 04:05:07;;;;;;;24.42;16.50;;;4.00;99.90;;;;;;5045810;28;20064;-76
2023/04/08 04:07:33;;;;;;;23.65;16.05;;;2.80;99.90;;;;;;5078427;28;20048;-76
2023/04/08 04:09:58;;;;;;;24.65;15.32;;;2.80;99.90;;;;;;5027725;28;20045;-76
2023/04/08 04:12:24;;;;;;;26.05;15.93;;;2.70;99.90;;;;;;5044935;28;20041;-76
2023/04/08 04:14:50;;;;;;;24.05;15.25;;;3.30;99.90;;;;;;5028004;28;20072;-77
2023/04/08 04:17:15;;;;;;;26.13;16.92;;;3.60;99.90;;;;;;5046386;28;20049;-77
2023/04/08 04:19:41;;;;;;;25.73;16.15;;;2.60;99.90;;;;;;5045293;28;20057;-77
2023/04/08 04:22:07;;;;;;;23.67;15.63;;;2.80;99.90;;;;;;5046184;28;20115;-76
2023/04/08 04:24:33;;;;;;;22.88;15.73;;;2.80;99.90;;;;;;5061891;28;20053;-77
2023/04/08 04:26:58;;;;;;;21.60;15.50;;;4.00;99.90;;;;;;5027528;28;20044;-76
2023/04/08 04:29:24;;;;;;;24.70;17.38;;;3.60;99.90;;;;;;5027966;28;20076;-77
2023/04/08 04:31:50;;;;;;;24.90;16.00;;;3.40;99.90;;;;;;5044728;28;20085;-77
2023/04/08 04:34:16;;;;;;;26.90;17.55;;;2.70;99.90;;;;;;5044685;28;20443;-77
2023/04/08 04:36:42;;;;;;;24.00;16.08;;;2.70;99.90;;;;;;5010769;28;20056;-76
2023/04/08 04:39:08;;;;;;;30.58;17.75;;;2.70;99.90;;;;;;5027440;28;20098;-77
2023/04/08 04:41:37;;;;;;;26.25;16.70;;;2.90;99.90;;;;;;5045427;28;20048;-77
2023/04/08 04:44:03;;;;;;;26.60;17.50;;;2.70;99.90;;;;;;5027795;28;20119;-77
2023/04/08 04:46:29;;;;;;;27.70;18.20;;;2.70;99.90;;;;;;5044308;28;20048;-77
2023/04/08 04:48:55;;;;;;;24.40;16.42;;;2.70;99.90;;;;;;5011486;28;20045;-77
2023/04/08 04:51:21;;;;;;;24.55;17.60;;;4.00;99.90;;;;;;5044538;28;20384;-77
2023/04/08 04:53:48;;;;;;;28.50;17.17;;;3.60;99.90;;;;;;5077954;28;20040;-77
2023/04/08 04:56:14;;;;;;;28.90;17.45;;;2.70;99.90;;;;;;5043543;28;20073;-77
2023/04/08 04:58:41;;;;;;;26.13;17.17;;;2.70;99.90;;;;;;5044502;28;20037;-77
2023/04/08 05:01:06;;;;;;;26.80;17.85;;;2.70;99.90;;;;;;5026887;28;20087;-77
2023/04/08 05:03:32;;;;;;;30.13;17.85;;;4.00;99.90;;;;;;5044294;28;20385;-76
2023/04/08 05:05:58;;;;;;;33.20;17.40;;;2.70;99.90;;;;;;5044045;28;20451;-76
2023/04/08 05:08:24;;;;;;;30.58;18.13;;;2.80;99.90;;;;;;5043749;28;20400;-76
2023/04/08 05:10:50;;;;;;;27.73;17.10;;;3.60;99.90;;;;;;5027749;28;20094;-76
2023/04/08 05:13:16;;;;;;;25.80;17.85;;;3.40;99.90;;;;;;5076724;28;20099;-76
2023/04/08 05:15:44;;;;;;;26.60;17.88;;;2.80;99.90;;;;;;5043929;28;20051;-76
2023/04/08 05:18:10;;;;;;;29.55;18.48;;;2.80;99.90;;;;;;5042916;28;20579;-76
2023/04/08 05:20:36;;;;;;;28.33;18.10;;;4.00;99.90;;;;;;5045330;28;20115;-76
2023/04/08 05:23:01;;;;;;;33.90;19.15;;;2.90;99.90;;;;;;5044522;28;20185;-76
2023/04/08 05:25:28;;;;;;;28.70;18.27;;;3.00;99.90;;;;;;5043349;28;20133;-76
2023/04/08 05:27:54;;;;;;;28.83;19.02;;;3.10;99.90;;;;;;5076948;28;20037;-76
2023/04/08 05:30:21;;;;;;;32.13;19.30;;;3.20;99.90;;;;;;5045033;28;20090;-76
2023/04/08 05:32:46;;;;;;;28.83;18.08;;;3.20;99.90;;;;;;5027704;28;20059;-76
2023/04/08 05:35:12;;;;;;;33.35;21.38;;;4.20;99.90;;;;;;5044241;28;20493;-76
2023/04/08 05:37:38;;;;;;;32.95;19.10;;;3.30;99.90;;;;;;5043243;28;20049;-76
2023/04/08 05:40:04;;;;;;;31.85;20.15;;;4.40;99.90;;;;;;5042960;28;20045;-77
2023/04/08 05:42:31;;;;;;;33.05;21.35;;;3.50;99.90;;;;;;5043330;28;20472;-76
2023/04/08 05:44:56;;;;;;;31.77;19.17;;;3.80;99.90;;;;;;5060412;28;20056;-77
2023/04/08 05:47:22;;;;;;;28.15;19.15;;;3.60;99.90;;;;;;5044257;28;20053;-76
2023/04/08 05:49:48;;;;;;;30.42;19.92;;;3.70;99.90;;;;;;5026744;28;20056;-76
2023/04/08 05:52:14;;;;;;;36.13;21.25;;;3.80;99.90;;;;;;5042621;28;20056;-76
2023/04/08 05:54:42;;;;;;;32.35;20.60;;;3.90;99.90;;;;;;5026477;28;20041;-77
2023/04/08 05:57:08;;;;;;;36.40;21.00;;;4.00;99.90;;;;;;5043773;28;20492;-77
2023/04/08 05:59:34;;;;;;;30.10;20.70;;;4.10;99.90;;;;;;5044139;28;20055;-76
2023/04/08 06:01:59;;;;;;;37.45;20.75;;;4.60;99.90;;;;;;5060120;28;20048;-76
2023/04/08 06:04:25;;;;;;;30.45;21.25;;;4.30;99.90;;;;;;5059272;28;20044;-75
2023/04/08 06:06:51;;;;;;;30.30;19.08;;;4.70;99.90;;;;;;5077222;28;20043;-76
2023/04/08 06:09:16;;;;;;;29.33;18.65;;;4.60;99.90;;;;;;5042515;28;20496;-76
2023/04/08 06:11:42;;;;;;;30.48;20.00;;;4.70;99.90;;;;;;5042633;28;20503;-75
2023/04/08 06:14:08;;;;;;;30.98;19.45;;;4.80;99.90;;;;;;5043552;28;20052;-76
2023/04/08 06:16:33;;;;;;;30.35;20.05;;;6.10;99.90;;;;;;5043829;28;20084;-76
2023/04/08 06:18:59;;;;;;;26.10;17.92;;;5.70;99.90;;;;;;5042500;28;20443;-76
2023/04/08 06:21:25;;;;;;;25.73;18.08;;;6.20;99.90;;;;;;5075940;28;20127;-78
2023/04/08 06:23:51;;;;;;;32.50;20.90;;;5.20;99.90;;;;;;5044300;28;20049;-77
2023/04/08 06:26:16;;;;;;;26.00;17.73;;;5.30;99.90;;;;;;5042476;28;20734;-76
2023/04/08 06:28:42;;;;;;;25.02;16.73;;;5.80;99.90;;;;;;5026052;28;20056;-76
2023/04/08 06:31:08;;;;;;;26.02;17.20;;;5.60;99.90;;;;;;5042976;28;20075;-76
2023/04/08 06:33:34;;;;;;;24.67;16.55;;;5.80;99.90;;;;;;5025469;28;20045;-76
2023/04/08 06:36:04;;;;;;;25.52;17.00;;;6.00;99.90;;;;;;5025625;28;20052;-76
2023/04/08 06:38:33;;;;;;;23.80;16.00;;;6.10;99.90;;;;;;5042163;28;20103;-77
2023/04/08 06:41:03;;;;;;;20.92;15.13;;;6.30;99.90;;;;;;5025967;28;20045;-76
2023/04/08 06:43:29;;;;;;;21.63;14.07;;;6.90;99.90;;;;;;5041993;28;20057;-77
2023/04/08 06:45:55;;;;;;;20.73;14.98;;;6.30;99.90;;;;;;5042915;28;20216;-77
2023/04/08 06:48:22;;;;;;;21.63;14.20;;;6.80;99.90;;;;;;5041530;28;20547;-76
2023/04/08 06:50:48;;;;;;;21.38;14.40;;;7.30;99.90;;;;;;5042014;28;20091;-78
2023/04/08 06:53:14;;;;;;;16.95;12.75;;;7.50;99.90;;;;;;5041888;28;20080;-78
2023/04/08 06:55:40;;;;;;;17.23;13.27;;;6.40;99.90;;;;;;5041904;28;20081;-77
2023/04/08 06:58:05;;;;;;;18.67;12.98;;;6.40;99.90;;;;;;5025973;28;20049;-77
2023/04/08 07:00:31;;;;;;;18.02;12.30;;;6.80;99.90;;;;;;5025027;28;20500;-77
2023/04/08 07:02:57;;;;;;;16.85;12.18;;;6.50;99.90;;;;;;5043819;28;20037;-78
2023/04/08 07:05:23;;;;;;;18.45;12.32;;;7.10;99.90;;;;;;5041329;28;20041;-76
2023/04/08 07:07:48;;;;;;;20.88;11.95;;;6.60;99.90;;;;;;5041752;28;20052;-77
2023/04/08 07:10:14;;;;;;;15.07;10.70;;;7.10;99.90;;;;;;5041790;28;20386;-76
2023/04/08 07:12:40;;;;;;;16.73;11.98;;;6.90;99.90;;;;;;5075709;28;20079;-76
2023/04/08 07:15:06;;;;;;;14.38;10.63;;;7.00;99.90;;;;;;5043655;28;20049;-76
2023/04/08 07:17:32;;;;;;;15.02;10.43;;;7.10;99.90;;;;;;5042943;28;20048;-76
2023/04/08 07:19:58;;;;;;;14.82;10.70;;;7.30;99.90;;;;;;5042530;28;20041;-76
2023/04/08 07:22:24;;;;;;;21.40;11.98;;;7.30;99.90;;;;;;5042984;28;20041;-77
2023/04/08 07:24:50;;;;;;;16.25;11.20;;;7.40;99.90;;;;;;5041809;28;20085;-78
2023/04/08 07:27:16;;;;;;;13.27;9.43;;;7.40;99.90;;;;;;5059057;28;20084;-77
2023/04/08 07:29:42;;;;;;;13.73;9.75;;;8.80;99.90;;;;;;5025203;28;20562;-77
2023/04/08 07:32:08;;;;;;;14.90;10.98;;;7.60;99.90;;;;;;5042337;28;20044;-76
2023/04/08 07:34:35;;;;;;;15.77;11.23;;;7.60;99.90;;;;;;5041662;28;20118;-79
2023/04/08 07:37:01;;;;;;;16.00;11.63;;;7.70;99.90;;;;;;5043216;28;20068;-77
2023/04/08 07:39:27;;;;;;;16.05;10.75;;;7.70;99.90;;;;;;5042534;28;20133;-79
2023/04/08 07:41:53;;;;;;;15.95;10.52;;;8.30;99.90;;;;;;5041798;28;20084;-77
2023/04/08 07:44:18;;;;;;;15.85;10.57;;;7.70;99.90;;;;;;5041633;28;20041;-77
2023/04/08 07:46:48;;;;;;;15.48;11.15;;;7.80;99.90;;;;;;5041509;28;20087;-77
2023/04/08 07:49:13;;;;;;;11.85;8.98;;;7.70;99.90;;;;;;5041783;28;20063;-77
2023/04/08 07:51:39;;;;;;;13.63;10.73;;;7.70;99.90;;;;;;5041717;28;20132;-77
2023/04/08 07:54:05;;;;;;;14.25;10.05;;;7.70;99.90;;;;;;5043388;28;20045;-78
2023/04/08 07:56:30;;;;;;;11.73;9.18;;;7.70;99.90;;;;;;5024755;28;20056;-80
2023/04/08 07:58:56;;;;;;;11.57;9.13;;;7.80;99.90;;;;;;5025605;28;20453;-78
2023/04/08 08:01:23;;;;;;;14.15;9.68;;;7.70;99.90;;;;;;5041707;28;20123;-76
2023/04/08 08:03:50;;;;;;;15.23;10.13;;;7.80;99.90;;;;;;5042890;28;20098;-78
2023/04/08 08:06:16;;;;;;;15.50;10.85;;;7.80;99.90;;;;;;5058652;28;20617;-79
2023/04/08 08:08:42;;;;;;;14.52;10.70;;;7.80;99.90;;;;;;5042716;28;20045;-79
2023/04/08 08:11:08;;;;;;;16.13;10.05;;;7.80;99.90;;;;;;5076660;28;20128;-79
2023/04/08 08:13:34;;;;;;;13.23;9.52;;;7.80;99.90;;;;;;5027594;28;20041;-79
2023/04/08 08:16:00;;;;;;;13.02;10.07;;;7.70;99.90;;;;;;5044884;28;20052;-79
2023/04/08 08:18:26;;;;;;;13.38;9.13;;;7.70;99.90;;;;;;5044830;28;20067;-78
2023/04/08 08:20:51;;;;;;;13.68;10.60;;;7.80;99.90;;;;;;5044560;28;20496;-78
2023/04/08 08:23:17;;;;;;;27.65;17.95;;;7.80;99.90;;;;;;5046276;28;20107;-78
2023/04/08 08:25:43;;;;;;;13.13;9.93;;;7.90;99.90;;;;;;5044517;28;20049;-79
2023/04/08 08:28:12;;;;;;;13.52;9.02;;;7.90;99.90;;;;;;5045262;28;20051;-77
2023/04/08 08:30:37;;;;;;;13.30;9.82;;;8.00;99.90;;;;;;5044688;28;20825;-78
2023/04/08 08:33:03;;;;;;;15.23;10.50;;;7.90;99.90;;;;;;5028297;28;20480;-80
2023/04/08 08:35:29;;;;;;;14.57;10.93;;;7.90;99.90;;;;;;5045258;28;20403;-78
2023/04/08 08:37:55;;;;;;;12.82;9.98;;;7.90;99.90;;;;;;5045824;28;20060;-78
2023/04/08 08:40:20;;;;;;;15.07;10.75;;;7.90;99.90;;;;;;5044444;28;20379;-78
2023/04/08 08:42:53;;;;;;;14.35;10.25;;;8.00;99.90;;;;;;5044608;28;20055;-78
2023/04/08 08:45:19;;;;;;;15.93;11.23;;;8.00;99.90;;;;;;5046315;28;20534;-81
2023/04/08 08:47:45;;;;;;;14.65;10.88;;;8.30;99.90;;;;;;5043763;28;20177;-80
2023/04/08 08:50:11;;;;;;;15.55;11.50;;;7.90;99.90;;;;;;5028453;28;20128;-81
2023/04/08 08:52:37;;;;;;;13.65;10.20;;;7.90;99.90;;;;;;5044056;28;20430;-81
2023/04/08 08:55:03;;;;;;;14.63;10.20;;;8.60;99.90;;;;;;5044086;28;20056;-80
2023/04/08 08:57:28;;;;;;;15.77;10.40;;;8.00;99.90;;;;;;5027761;28;20072;-81
2023/04/08 08:59:54;;;;;;;15.95;10.80;;;8.00;99.90;;;;;;5027277;28;20041;-80
2023/04/08 09:02:28;;;;;;;12.90;9.52;;;8.40;99.90;;;;;;5044668;28;20037;-80
2023/04/08 09:05:04;;;;;;;13.23;8.27;;;9.00;99.90;;;;;;5043752;28;20045;-80
2023/04/08 09:07:34;;;;;;;10.00;7.55;;;9.10;99.90;;;;;;5043977;28;20489;-81
2023/04/08 09:10:00;;;;;;;12.95;7.90;;;7.60;99.90;;;;;;5043858;28;20484;-80
2023/04/08 09:12:27;;;;;;;13.40;8.65;;;8.20;99.90;;;;;;5045017;28;20056;-81
2023/04/08 09:15:09;;;;;;;11.30;8.07;;;8.20;99.90;;;;;;5027835;28;20055;-81
2023/04/08 09:17:40;;;;;;;11.27;7.60;;;8.20;99.90;;;;;;5043516;28;20175;-83
2023/04/08 09:20:14;;;;;;;11.00;7.35;;;8.30;99.90;;;;;;5027439;28;20488;-82
2023/04/08 09:23:00;;;;;;;12.68;8.73;;;8.30;99.90;;;;;;5042804;28;20049;-81
2023/04/08 09:25:31;;;;;;;10.85;7.68;;;8.40;99.90;;;;;;5026894;28;20132;-82
2023/04/08 09:27:58;;;;;;;11.40;7.70;;;8.70;99.90;;;;;;5028323;28;20099;-81
2023/04/08 09:30:25;;;;;;;15.18;9.27;;;8.50;99.90;;;;;;5027169;28;20373;-82
2023/04/08 09:32:53;;;;;;;16.42;9.73;;;8.60;99.90;;;;;;5027386;28;20041;-82
2023/04/08 09:35:22;;;;;;;15.68;10.15;;;9.70;99.90;;;;;;5026241;28;20052;-82
2023/04/08 09:37:51;;;;;;;16.55;11.32;;;8.60;99.90;;;;;;5026546;28;20512;-82
2023/04/08 09:40:17;;;;;;;14.57;10.13;;;8.60;99.90;;;;;;5026795;28;20049;-81
2023/04/08 09:42:49;;;;;;;16.90;10.25;;;8.70;99.90;;;;;;5059889;28;20052;-80
2023/04/08 09:45:17;;;;;;;15.65;9.65;;;8.80;99.90;;;;;;5044471;28;20103;-79
2023/04/08 09:48:11;;;;;;;14.95;9.02;;;9.00;99.90;;;;;;5044787;28;20413;-80
2023/04/08 09:50:44;;;;;;;12.98;8.73;;;9.10;99.90;;;;;;5075225;28;20084;-80
2023/04/08 09:53:17;;;;;;;13.43;8.47;;;9.30;99.90;;;;;;5026833;28;20065;-80
2023/04/08 09:55:49;;;;;;;12.13;8.57;;;9.40;99.90;;;;;;5044096;28;20806;-80
2023/04/08 09:58:17;;;;;;;16.52;8.50;;;9.40;99.90;;;;;;5043593;28;20130;-80
2023/04/08 10:00:50;;;;;;;13.55;8.77;;;9.50;99.90;;;;;;5010114;28;20067;-80
2023/04/08 10:03:39;;;;;;;12.18;8.63;;;9.50;99.90;;;;;;5026283;28;20049;-80
2023/04/08 10:06:07;;;;;;;15.02;9.73;;;9.60;99.90;;;;;;5027118;28;20064;-77
2023/04/08 10:08:34;;;;;;;14.55;9.50;;;9.60;99.90;;;;;;5042938;28;20037;-79
2023/04/08 10:11:00;;;;;;;12.52;8.57;;;9.70;99.90;;;;;;5043608;28;20598;-78
2023/04/08 10:13:31;;;;;;;16.55;10.80;;;9.60;99.90;;;;;;5042165;28;20048;-79
2023/04/08 10:16:19;;;;;;;13.32;9.82;;;9.60;99.90;;;;;;5076719;28;20056;-77
2023/04/08 10:18:45;;;;;;;14.88;10.07;;;9.60;99.90;;;;;;5026066;28;20097;-78
2023/04/08 10:21:30;;;;;;;17.45;11.07;;;9.50;99.90;;;;;;5042226;28;20041;-79
2023/04/08 10:24:04;;;;;;;17.55;10.93;;;9.60;99.90;;;;;;5060272;28;20041;-79
2023/04/08 10:26:44;;;;;;;15.20;10.15;;;9.60;99.90;;;;;;5059680;28;20249;-79
2023/04/08 10:29:25;;;;;;;16.45;10.32;;;9.60;99.90;;;;;;5010350;28;20461;-79
2023/04/08 10:31:52;;;;;;;17.38;10.25;;;8.90;99.90;;;;;;5026776;28;20131;-79
2023/04/08 10:34:22;;;;;;;16.30;9.82;;;9.70;99.90;;;;;;5057738;28;20041;-79
2023/04/08 10:36:48;;;;;;;13.43;9.57;;;9.70;99.90;;;;;;5026183;28;20049;-78
2023/04/08 10:39:15;;;;;;;30.92;17.70;;;9.80;99.90;;;;;;5008949;28;20483;-80
2023/04/08 10:41:45;;;;;;;18.80;11.55;;;9.90;99.90;;;;;;5042293;28;20056;-80
2023/04/08 10:44:19;;;;;;;16.50;11.18;;;9.80;99.90;;;;;;5042333;28;20215;-78
2023/04/08 10:46:46;;;;;;;18.30;11.23;;;9.80;99.90;;;;;;5025305;28;20135;-77
2023/04/08 10:49:18;;;;;;;18.80;11.65;;;9.80;99.90;;;;;;5042981;28;20053;-77
2023/04/08 10:51:45;;;;;;;14.30;9.15;;;9.80;99.90;;;;;;5075266;28;20116;-77
2023/04/08 10:54:16;;;;;;;19.63;12.07;;;9.80;99.90;;;;;;5026153;28;20137;-77
2023/04/08 10:56:51;;;;;;;23.67;12.93;;;9.80;99.90;;;;;;5075522;28;20044;-77
2023/04/08 10:59:27;;;;;;;22.63;12.85;;;9.90;99.90;;;;;;5041802;28;20049;-77
2023/04/08 11:01:54;;;;;;;23.02;13.48;;;9.90;99.90;;;;;;5026023;28;20045;-78
2023/04/08 11:04:22;;;;;;;21.20;13.63;;;9.90;99.90;;;;;;5058285;28;20081;-78
2023/04/08 11:06:48;;;;;;;23.15;13.93;;;10.00;99.90;;;;;;5076393;28;20519;-78
2023/04/08 11:09:18;;;;;;;25.33;14.02;;;10.10;99.90;;;;;;5025481;28;20432;-78
2023/04/08 11:11:45;;;;;;;26.35;14.55;;;10.20;99.90;;;;;;5059263;28;20052;-78
2023/04/08 11:14:11;;;;;;;24.02;13.73;;;10.30;99.90;;;;;;5025235;28;20041;-79
2023/04/08 11:16:41;;;;;;;26.55;13.65;;;10.30;99.90;;;;;;5041973;28;20098;-78
2023/04/08 11:19:07;;;;;;;25.75;12.70;;;10.30;99.90;;;;;;5009996;28;20102;-78
2023/04/08 11:21:37;;;;;;;24.35;13.60;;;10.30;99.90;;;;;;5024800;28;20052;-77
2023/04/08 11:24:13;;;;;;;21.08;13.35;;;10.30;99.90;;;;;;5076187;28;20048;-77
2023/04/08 11:26:40;;;;;;;21.23;13.00;;;10.30;99.90;;;;;;5041345;28;20461;-80
2023/04/08 11:29:11;;;;;;;20.65;13.13;;;10.30;99.90;;;;;;5026080;28;20475;-78
2023/04/08 11:31:37;;;;;;;21.27;11.75;;;10.40;99.90;;;;;;5058787;28;20232;-80
2023/04/08 11:34:03;;;;;;;23.30;13.02;;;10.60;99.90;;;;;;5041450;28;20041;-79
2023/04/08 11:36:29;;;;;;;20.83;12.73;;;10.70;99.90;;;;;;5042641;28;20059;-79
2023/04/08 11:38:55;;;;;;;20.88;12.93;;;10.70;99.90;;;;;;5024579;28;20136;-79
2023/04/08 11:41:21;;;;;;;24.17;13.52;;;10.70;99.90;;;;;;5025612;28;20649;-80
2023/04/08 11:43:57;;;;;;;26.60;13.68;;;11.80;99.90;;;;;;5041963;28;20127;-79
2023/04/08 11:46:23;;;;;;;19.35;11.57;;;10.90;99.90;;;;;;5078801;28;20555;-77
2023/04/08 11:49:05;;;;;;;22.95;12.27;;;11.00;99.90;;;;;;5029023;28;20041;-78
2023/04/08 11:51:33;;;;;;;20.08;13.20;;;11.00;99.90;;;;;;5044766;28;20136;-79
2023/04/08 11:54:01;;;;;;;24.42;14.07;;;11.00;99.90;;;;;;5045894;28;20076;-76
2023/04/08 11:56:29;;;;;;;21.65;14.93;;;10.90;99.90;;;;;;5044811;28;20126;-77
2023/04/08 11:58:55;;;;;;;27.75;13.85;;;10.80;99.90;;;;;;5078722;28;20045;-77
2023/04/08 12:01:20;;;;;;;25.00;15.32;;;10.80;99.90;;;;;;5045033;28;20049;-77
2023/04/08 12:03:58;;;;;;;22.38;15.23;;;10.70;99.90;;;;;;5045033;28;20063;-76
2023/04/08 12:06:26;;;;;;;23.85;14.60;;;10.80;99.90;;;;;;5079457;28;20048;-77
2023/04/08 12:08:52;;;;;;;20.65;13.30;;;10.80;99.90;;;;;;5044479;28;20041;-77
2023/04/08 12:11:17;;;;;;;21.02;14.43;;;10.70;99.90;;;;;;5028664;28;20156;-76
2023/04/08 12:13:43;;;;;;;25.38;15.05;;;10.80;99.90;;;;;;5027887;28;20045;-77
2023/04/08 12:16:09;;;;;;;20.17;13.88;;;10.80;99.90;;;;;;5061488;28;20051;-76
2023/04/08 12:18:36;;;;;;;19.95;13.95;;;10.80;99.90;;;;;;5046453;28;20094;-79
2023/04/08 12:21:02;;;;;;;18.33;13.75;;;10.90;99.90;;;;;;5044397;28;20072;-77
2023/04/08 12:23:27;;;;;;;21.77;14.45;;;10.90;99.90;;;;;;5028862;28;20041;-77
2023/04/08 12:25:53;;;;;;;22.05;13.98;;;10.90;99.90;;;;;;5043779;28;20107;-77
2023/04/08 12:28:19;;;;;;;20.63;13.40;;;11.00;99.90;;;;;;5044854;28;20048;-77
2023/04/08 12:30:45;;;;;;;18.85;13.02;;;11.10;99.90;;;;;;5043789;28;20049;-77
2023/04/08 12:33:11;;;;;;;22.02;12.98;;;11.00;99.90;;;;;;5044129;28;20056;-77
2023/04/08 12:35:37;;;;;;;20.92;13.30;;;11.00;99.90;;;;;;5044026;28;20044;-77
2023/04/08 12:38:02;;;;;;;22.08;11.63;;;10.90;99.90;;;;;;5043706;28;20041;-77
2023/04/08 12:40:28;;;;;;;13.75;10.15;;;11.20;99.90;;;;;;5047056;28;20049;-78